This is the latest recevied weather packets stored in our database for station/object CR7BQX-13. If no packets are shown the sender has not sent any weather packets the latest 10 day(s).
| Time | Temp. | Humidity | Pressure | Rain* | Wind** | Luminosity | Snow |
|---|---|---|---|---|---|---|---|
| 1777658478 | 22.22° C | 100% | 1016.2 hPa | - | - | - | - |
| 1777656673 | 23.89° C | 100% | 1016.2 hPa | - | - | - | - |
| 1777654936 | 26.11° C | 100% | 1015.9 hPa | - | - | - | - |
| 1777653130 | 27.78° C | 100% | 1016 hPa | - | - | - | - |
| 1777651324 | 30.56° C | 100% | 1015.8 hPa | - | - | - | - |
| 1777649519 | 29.44° C | 100% | 1015.8 hPa | - | - | - | - |
| 1777647713 | 32.22° C | 100% | 1016 hPa | - | - | - | - |
| 1777645907 | 32.78° C | 98% | 1016.2 hPa | - | - | - | - |
| 1777644101 | 32.78° C | 92% | 1016.4 hPa | - | - | - | - |
| 1777642296 | 32.78° C | 89% | 1016.6 hPa | - | - | - | - |
| 1777640490 | 32.78° C | 85% | 1016.8 hPa | - | - | - | - |
| 1777638684 | 32.78° C | 80% | 1017 hPa | - | - | - | - |
| 1777636878 | 30.56° C | 89% | 1017.4 hPa | - | - | - | - |
| 1777635072 | 32.22° C | 92% | 1017.8 hPa | - | - | - | - |
| 1777565326 | 22.78° C | 100% | 1016.2 hPa | - | - | - | - |
| 1777563521 | 21.67° C | 100% | 1016.1 hPa | - | - | - | - |
| 1777561715 | 19.44° C | 100% | 1016.2 hPa | - | - | - | - |
| 1777479666 | 15.56° C | 100% | 1007.2 hPa | - | - | - | - |
| 1777477861 | 16.11° C | 92% | 1006.9 hPa | - | - | - | - |
| 1777395282 | 35° C | 39% | 1004.4 hPa | - | - | - | - |
| 1777391671 | 38.33° C | 37% | 1004.4 hPa | - | - | - | - |
| 1777388059 | 42.78° C | 34% | 1005 hPa | - | - | - | - |
| 1777386254 | 41.67° C | 36% | 1005.4 hPa | - | - | - | - |
| 1777384448 | 39.44° C | 36% | 1005.8 hPa | - | - | - | - |
| 1777382642 | 31.67° C | 49% | 1006.1 hPa | - | - | - | - |
* Rain since midnight (hover to see other rain measurements)
** Current wind speed in m/s (hover to see current wind gust speed)